Time;durP1;ratioP1;P1;durP2;ratioP2;P2;SDS_P1;SDS_P2;PMS_P1;PMS_P2;Temp;Humidity;BMP_temperature;BMP_pressure;BME280_temperature;BME280_humidity;BME280_pressure;Samples;Min_cycle;Max_cycle;Signal;HPM_P1;HPM_P2
2023/09/24 00:01:02;;;;;;;;;;;20.70;43.80;;;;;;1563448;74;719;-66
2023/09/24 00:03:05;;;;;;;;;;;21.30;44.10;;;;;;1562761;74;752;-67
2023/09/24 00:05:08;;;;;;;;;;;20.80;43.80;;;;;;1566813;74;711;-67
2023/09/24 00:07:10;;;;;;;;;;;20.80;43.70;;;;;;1559823;74;738;-66
2023/09/24 00:09:14;;;;;;;;;;;20.80;43.80;;;;;;1559127;74;1914;-67
2023/09/24 00:11:16;;;;;;;;;;;20.80;43.80;;;;;;1565826;74;693;-66
2023/09/24 00:13:18;;;;;;;;;;;20.80;43.70;;;;;;1560737;74;741;-67
2023/09/24 00:15:20;;;;;;;;;;;20.80;43.70;;;;;;1565213;74;732;-66
2023/09/24 00:17:22;;;;;;;;;;;20.80;43.60;;;;;;1558350;74;799;-66
2023/09/24 00:19:28;;;;;;;;;;;20.80;43.70;;;;;;1566712;74;1132;-67
2023/09/24 00:21:27;;;;;;;;;;;20.80;43.70;;;;;;1563983;74;1612;-66
2023/09/24 00:23:29;;;;;;;;;;;20.80;43.70;;;;;;1566724;74;785;-67
2023/09/24 00:25:31;;;;;;;;;;;20.80;43.70;;;;;;1564722;74;749;-68
2023/09/24 00:27:33;;;;;;;;;;;20.80;43.70;;;;;;1565973;74;652;-66
2023/09/24 00:29:35;;;;;;;;;;;20.80;43.70;;;;;;1561070;74;1924;-67
2023/09/24 00:31:37;;;;;;;;;;;20.80;43.80;;;;;;1560309;74;718;-66
2023/09/24 00:33:39;;;;;;;;;;;20.80;43.80;;;;;;1563307;74;721;-68
2023/09/24 00:35:41;;;;;;;;;;;20.80;43.80;;;;;;1567068;74;762;-67
2023/09/24 00:37:43;;;;;;;;;;;20.80;43.70;;;;;;1563249;74;719;-67
2023/09/24 00:39:45;;;;;;;;;;;20.80;43.70;;;;;;1565333;74;1142;-64
2023/09/24 00:41:48;;;;;;;;;;;20.80;43.70;;;;;;1566681;74;735;-67
2023/09/24 00:43:50;;;;;;;;;;;20.80;43.60;;;;;;1558947;74;737;-67
2023/09/24 00:45:52;;;;;;;;;;;20.70;43.60;;;;;;1564196;74;726;-67
2023/09/24 00:47:54;;;;;;;;;;;20.70;43.60;;;;;;1567114;74;1143;-67
2023/09/24 00:49:56;;;;;;;;;;;20.80;43.60;;;;;;1565518;74;1937;-67
2023/09/24 00:51:58;;;;;;;;;;;20.70;43.40;;;;;;1562764;74;786;-67
2023/09/24 00:54:00;;;;;;;;;;;20.70;43.60;;;;;;1574282;74;752;-66
2023/09/24 00:56:02;;;;;;;;;;;20.70;43.60;;;;;;1562878;74;736;-67
2023/09/24 00:58:04;;;;;;;;;;;20.70;43.60;;;;;;1566009;74;1141;-66
2023/09/24 01:00:16;;;;;;;;;;;20.80;43.60;;;;;;1573236;74;736;-66
2023/09/24 01:02:17;;;;;;;;;;;21.20;43.90;;;;;;1564098;74;1631;-67
2023/09/24 01:04:18;;;;;;;;;;;20.70;43.60;;;;;;1566480;74;686;-68
2023/09/24 01:06:21;;;;;;;;;;;20.80;43.60;;;;;;1562517;74;745;-67
2023/09/24 01:08:23;;;;;;;;;;;20.80;43.60;;;;;;1556789;74;1160;-66
2023/09/24 01:10:25;;;;;;;;;;;21.10;43.70;;;;;;1563127;74;1901;-67
2023/09/24 01:12:29;;;;;;;;;;;20.80;43.40;;;;;;1566535;74;782;-67
2023/09/24 01:14:31;;;;;;;;;;;20.80;43.50;;;;;;1564051;74;1465;-67
2023/09/24 01:16:33;;;;;;;;;;;20.70;43.50;;;;;;1566318;74;725;-68
2023/09/24 01:18:37;;;;;;;;;;;20.70;43.50;;;;;;1566854;74;1504;-68
2023/09/24 01:20:40;;;;;;;;;;;20.70;43.40;;;;;;1560299;74;1152;-68
2023/09/24 01:22:42;;;;;;;;;;;20.70;43.40;;;;;;1559010;74;1640;-67
2023/09/24 01:24:44;;;;;;;;;;;20.80;43.30;;;;;;1564645;74;712;-67
2023/09/24 01:26:46;;;;;;;;;;;20.80;43.40;;;;;;1560150;74;703;-67
2023/09/24 01:28:48;;;;;;;;;;;20.80;43.40;;;;;;1560417;74;1234;-66
2023/09/24 01:30:49;;;;;;;;;;;20.80;43.30;;;;;;1559751;74;1934;-66
2023/09/24 01:32:51;;;;;;;;;;;20.80;43.30;;;;;;1565366;74;742;-66
2023/09/24 01:34:54;;;;;;;;;;;20.70;43.20;;;;;;1561074;74;737;-67
2023/09/24 01:36:58;;;;;;;;;;;20.70;43.40;;;;;;1567006;74;713;-67
2023/09/24 01:38:59;;;;;;;;;;;20.70;43.30;;;;;;1565450;74;1134;-66
2023/09/24 01:41:04;;;;;;;;;;;20.70;43.30;;;;;;1566815;74;631;-67
2023/09/24 01:43:08;;;;;;;;;;;20.70;43.20;;;;;;1560185;74;1680;-67
2023/09/24 01:45:10;;;;;;;;;;;20.70;43.30;;;;;;1567208;74;719;-65
2023/09/24 01:47:12;;;;;;;;;;;20.70;43.10;;;;;;1562278;74;712;-67
2023/09/24 01:49:16;;;;;;;;;;;20.70;43.20;;;;;;1556564;74;1184;-67
2023/09/24 01:51:20;;;;;;;;;;;21.50;43.50;;;;;;1563895;74;1934;-66
2023/09/24 01:53:22;;;;;;;;;;;21.30;43.40;;;;;;1565859;74;1703;-66
2023/09/24 01:55:26;;;;;;;;;;;20.70;43.10;;;;;;1561236;74;780;-66
2023/09/24 01:57:28;;;;;;;;;;;20.70;43.10;;;;;;1565476;74;1524;-66
2023/09/24 01:59:31;;;;;;;;;;;20.70;43.00;;;;;;1565992;74;1166;-67
2023/09/24 02:01:33;;;;;;;;;;;20.70;43.00;;;;;;1565447;74;731;-67
2023/09/24 02:03:37;;;;;;;;;;;20.70;42.90;;;;;;1557406;74;765;-67
2023/09/24 02:05:42;;;;;;;;;;;20.70;43.00;;;;;;1563935;74;1021;-66
2023/09/24 02:07:42;;;;;;;;;;;20.70;43.00;;;;;;1567137;74;1689;-67
2023/09/24 02:09:44;;;;;;;;;;;20.70;43.00;;;;;;1565619;74;1956;-66
2023/09/24 02:11:46;;;;;;;;;;;20.70;42.90;;;;;;1561870;74;736;-66
2023/09/24 02:13:48;;;;;;;;;;;20.70;42.90;;;;;;1562343;74;1495;-67
2023/09/24 02:15:50;;;;;;;;;;;20.70;42.80;;;;;;1526007;76;697;-67
2023/09/24 02:17:52;;;;;;;;;;;20.70;42.80;;;;;;1559693;74;1149;-67
2023/09/24 02:19:55;;;;;;;;;;;20.70;42.90;;;;;;1563521;74;709;-67
2023/09/24 02:21:57;;;;;;;;;;;20.70;42.90;;;;;;1560575;74;714;-67
2023/09/24 02:23:59;;;;;;;;;;;20.70;42.80;;;;;;1558602;74;800;-67
2023/09/24 02:26:01;;;;;;;;;;;20.70;42.80;;;;;;1565405;74;748;-67
2023/09/24 02:28:03;;;;;;;;;;;21.20;42.70;;;;;;1566968;74;1169;-67
2023/09/24 02:30:06;;;;;;;;;;;20.70;42.50;;;;;;1565259;74;1922;-64
2023/09/24 02:32:08;;;;;;;;;;;20.70;42.40;;;;;;1562964;74;738;-67
2023/09/24 02:34:10;;;;;;;;;;;20.70;42.60;;;;;;1566971;74;738;-67
2023/09/24 02:36:12;;;;;;;;;;;20.70;42.60;;;;;;1564956;74;712;-67
2023/09/24 02:38:14;;;;;;;;;;;20.70;42.50;;;;;;1566161;74;1165;-67
2023/09/24 02:40:27;;;;;;;;;;;20.70;42.60;;;;;;1565934;74;718;-67
2023/09/24 02:42:26;;;;;;;;;;;20.70;42.70;;;;;;1564594;74;951;-67
2023/09/24 02:44:29;;;;;;;;;;;20.70;42.80;;;;;;1566526;74;657;-67
2023/09/24 02:46:31;;;;;;;;;;;20.70;42.40;;;;;;1567181;74;736;-66
2023/09/24 02:48:35;;;;;;;;;;;20.70;42.70;;;;;;1563519;74;1165;-66
2023/09/24 02:50:37;;;;;;;;;;;20.70;42.50;;;;;;1560459;74;1934;-67
2023/09/24 02:52:39;;;;;;;;;;;20.60;42.30;;;;;;1562791;74;728;-67
2023/09/24 02:54:41;;;;;;;;;;;20.70;42.30;;;;;;1566317;74;720;-66
2023/09/24 02:56:43;;;;;;;;;;;20.70;42.30;;;;;;1566373;74;725;-67
2023/09/24 02:58:45;;;;;;;;;;;20.60;42.10;;;;;;1558374;74;1168;-66
2023/09/24 03:00:47;;;;;;;;;;;20.60;42.30;;;;;;1560556;74;754;-66
2023/09/24 03:02:49;;;;;;;;;;;20.70;42.40;;;;;;1555259;74;695;-66
2023/09/24 03:04:51;;;;;;;;;;;20.60;42.30;;;;;;1565718;74;705;-67
2023/09/24 03:06:53;;;;;;;;;;;20.70;42.40;;;;;;1561847;74;725;-67
2023/09/24 03:08:54;;;;;;;;;;;20.60;42.30;;;;;;1561540;74;1152;-67
2023/09/24 03:10:56;;;;;;;;;;;20.70;42.40;;;;;;1566096;74;1946;-65
2023/09/24 03:12:59;;;;;;;;;;;20.60;42.30;;;;;;1563103;74;772;-67
2023/09/24 03:15:02;;;;;;;;;;;20.70;42.80;;;;;;1561509;74;724;-66
2023/09/24 03:17:05;;;;;;;;;;;20.60;42.60;;;;;;1565898;74;628;-67
2023/09/24 03:19:08;;;;;;;;;;;21.40;43.10;;;;;;1565508;74;1153;-66
2023/09/24 03:21:11;;;;;;;;;;;20.70;42.80;;;;;;1559082;74;764;-66
2023/09/24 03:23:13;;;;;;;;;;;20.60;42.80;;;;;;1560623;74;1127;-67
2023/09/24 03:25:18;;;;;;;;;;;20.60;42.70;;;;;;1564996;74;723;-68
2023/09/24 03:27:21;;;;;;;;;;;20.60;42.70;;;;;;1555631;74;776;-67
2023/09/24 03:29:22;;;;;;;;;;;20.70;42.90;;;;;;1565532;74;1142;-66
2023/09/24 03:31:24;;;;;;;;;;;20.70;43.00;;;;;;1571581;74;1949;-66
2023/09/24 03:33:27;;;;;;;;;;;20.70;43.00;;;;;;1565638;74;707;-66
2023/09/24 03:35:29;;;;;;;;;;;20.70;43.00;;;;;;1565196;74;745;-65
2023/09/24 03:37:32;;;;;;;;;;;20.60;43.00;;;;;;1559764;74;631;-65
2023/09/24 03:39:34;;;;;;;;;;;20.70;43.00;;;;;;1558930;74;1162;-67
2023/09/24 03:41:35;;;;;;;;;;;20.60;43.00;;;;;;1569480;74;722;-68
2023/09/24 03:43:37;;;;;;;;;;;20.70;43.10;;;;;;1561040;74;777;-67
2023/09/24 03:45:39;;;;;;;;;;;20.70;43.10;;;;;;1564648;75;577;-65
2023/09/24 03:47:41;;;;;;;;;;;20.60;43.00;;;;;;1562379;74;643;-67
2023/09/24 03:49:43;;;;;;;;;;;20.70;43.20;;;;;;1567069;74;1123;-68
2023/09/24 03:51:45;;;;;;;;;;;20.70;43.10;;;;;;1565541;74;1936;-66
2023/09/24 03:53:47;;;;;;;;;;;21.20;43.40;;;;;;1563635;74;776;-64
2023/09/24 03:55:49;;;;;;;;;;;20.70;43.20;;;;;;1558595;74;741;-66
2023/09/24 03:57:51;;;;;;;;;;;20.70;43.20;;;;;;1553412;74;1145;-67
2023/09/24 03:59:52;;;;;;;;;;;20.60;43.10;;;;;;1563642;74;725;-67
2023/09/24 04:01:54;;;;;;;;;;;20.70;43.20;;;;;;1560636;74;735;-66
2023/09/24 04:03:59;;;;;;;;;;;20.70;43.20;;;;;;1565393;74;746;-67
2023/09/24 04:06:00;;;;;;;;;;;20.70;43.20;;;;;;1565180;74;1660;-67
2023/09/24 04:08:03;;;;;;;;;;;20.70;43.20;;;;;;1561463;74;1124;-67
2023/09/24 04:10:05;;;;;;;;;;;20.60;43.00;;;;;;1560261;74;737;-66
2023/09/24 04:12:08;;;;;;;;;;;20.70;43.10;;;;;;1566199;74;1985;-66
2023/09/24 04:14:10;;;;;;;;;;;20.70;43.10;;;;;;1531180;76;729;-66
2023/09/24 04:16:15;;;;;;;;;;;20.70;43.10;;;;;;1564912;74;770;-67
2023/09/24 04:18:17;;;;;;;;;;;20.60;43.00;;;;;;1564382;74;1133;-67
2023/09/24 04:20:20;;;;;;;;;;;20.70;43.10;;;;;;1561581;74;711;-67
2023/09/24 04:22:22;;;;;;;;;;;20.60;42.90;;;;;;1562787;74;603;-67
2023/09/24 04:24:24;;;;;;;;;;;20.70;43.10;;;;;;1562534;74;614;-66
2023/09/24 04:26:26;;;;;;;;;;;21.40;43.50;;;;;;1564429;74;621;-66
2023/09/24 04:28:28;;;;;;;;;;;20.70;43.10;;;;;;1554554;74;1114;-67
2023/09/24 04:30:30;;;;;;;;;;;20.70;43.10;;;;;;1567524;74;1910;-67
2023/09/24 04:32:32;;;;;;;;;;;20.60;43.00;;;;;;1571429;74;740;-66
2023/09/24 04:34:34;;;;;;;;;;;20.70;43.10;;;;;;1563699;74;726;-66
2023/09/24 04:36:36;;;;;;;;;;;20.70;43.00;;;;;;1556376;74;713;-66
2023/09/24 04:38:37;;;;;;;;;;;20.60;42.90;;;;;;1563175;74;1154;-67
2023/09/24 04:40:39;;;;;;;;;;;20.70;43.00;;;;;;1564410;74;701;-66
2023/09/24 04:42:41;;;;;;;;;;;20.60;42.90;;;;;;1560047;74;734;-64
2023/09/24 04:44:43;;;;;;;;;;;20.60;42.80;;;;;;1563799;74;634;-67
2023/09/24 04:46:45;;;;;;;;;;;20.60;42.80;;;;;;1567003;74;642;-65
2023/09/24 04:48:48;;;;;;;;;;;20.60;42.80;;;;;;1560257;74;1236;-67
2023/09/24 04:50:50;;;;;;;;;;;20.60;42.70;;;;;;1556586;74;1928;-66
2023/09/24 04:52:54;;;;;;;;;;;20.60;42.70;;;;;;1564614;74;649;-66
2023/09/24 04:54:55;;;;;;;;;;;20.70;42.90;;;;;;1566625;74;1658;-66
2023/09/24 04:56:57;;;;;;;;;;;20.60;42.80;;;;;;1563956;74;699;-66
2023/09/24 04:58:59;;;;;;;;;;;20.60;42.60;;;;;;1562664;74;1164;-67
2023/09/24 05:01:07;;;;;;;;;;;20.60;42.70;;;;;;1564155;74;739;-67
2023/09/24 05:03:09;;;;;;;;;;;21.20;42.90;;;;;;1565477;74;1467;-67
2023/09/24 05:05:11;;;;;;;;;;;20.70;42.70;;;;;;1562939;74;746;-64
2023/09/24 05:07:13;;;;;;;;;;;20.60;42.70;;;;;;1565952;74;700;-66
2023/09/24 05:09:15;;;;;;;;;;;20.60;42.70;;;;;;1561654;74;1149;-66
2023/09/24 05:11:17;;;;;;;;;;;20.60;42.60;;;;;;1561348;74;1873;-67
2023/09/24 05:13:19;;;;;;;;;;;20.60;42.60;;;;;;1561366;74;721;-66
2023/09/24 05:15:21;;;;;;;;;;;20.60;42.70;;;;;;1563617;74;626;-66
2023/09/24 05:17:22;;;;;;;;;;;21.70;43.30;;;;;;1561302;74;671;-67
2023/09/24 05:19:24;;;;;;;;;;;20.70;42.80;;;;;;1562804;75;1116;-66
2023/09/24 05:21:27;;;;;;;;;;;20.70;42.70;;;;;;1570468;74;698;-67
2023/09/24 05:23:29;;;;;;;;;;;20.60;42.60;;;;;;1564967;74;703;-66
2023/09/24 05:25:32;;;;;;;;;;;20.60;42.50;;;;;;1564957;74;727;-66
2023/09/24 05:27:34;;;;;;;;;;;20.60;42.50;;;;;;1565946;74;1748;-67
2023/09/24 05:29:36;;;;;;;;;;;20.60;42.40;;;;;;1564776;74;1144;-66
2023/09/24 05:31:38;;;;;;;;;;;20.60;42.40;;;;;;1560699;74;1942;-67
2023/09/24 05:33:41;;;;;;;;;;;20.60;42.50;;;;;;1566650;74;717;-67
2023/09/24 05:35:43;;;;;;;;;;;20.60;42.50;;;;;;1559422;74;744;-66
2023/09/24 05:37:45;;;;;;;;;;;20.60;42.40;;;;;;1571310;74;699;-66
2023/09/24 05:39:47;;;;;;;;;;;20.70;42.60;;;;;;1559348;74;1145;-64
2023/09/24 05:41:49;;;;;;;;;;;20.60;42.50;;;;;;1557249;74;777;-66
2023/09/24 05:43:54;;;;;;;;;;;20.60;42.40;;;;;;1559560;74;806;-67
2023/09/24 05:45:54;;;;;;;;;;;20.60;42.50;;;;;;1565009;74;1642;-66
2023/09/24 05:47:56;;;;;;;;;;;20.60;42.50;;;;;;1567292;74;1173;-67
2023/09/24 05:49:58;;;;;;;;;;;20.60;42.50;;;;;;1561445;74;690;-67
2023/09/24 05:52:00;;;;;;;;;;;20.60;42.50;;;;;;1566360;74;1920;-67
2023/09/24 05:54:02;;;;;;;;;;;20.60;42.50;;;;;;1566244;74;716;-67
2023/09/24 05:56:04;;;;;;;;;;;20.60;42.50;;;;;;1566063;74;765;-66
2023/09/24 05:58:06;;;;;;;;;;;20.60;42.60;;;;;;1566855;74;1148;-66
2023/09/24 06:00:09;;;;;;;;;;;21.20;42.80;;;;;;1564260;74;1426;-67
2023/09/24 06:02:11;;;;;;;;;;;20.60;42.60;;;;;;1568884;74;743;-66
2023/09/24 06:04:12;;;;;;;;;;;20.60;42.60;;;;;;1566035;74;644;-67
2023/09/24 06:06:14;;;;;;;;;;;20.60;42.60;;;;;;1568207;74;733;-67
2023/09/24 06:08:16;;;;;;;;;;;20.60;42.60;;;;;;1564334;74;1113;-67
2023/09/24 06:10:20;;;;;;;;;;;20.50;42.60;;;;;;1559956;74;744;-68
2023/09/24 06:12:24;;;;;;;;;;;20.60;42.60;;;;;;1564435;74;1919;-67
2023/09/24 06:14:26;;;;;;;;;;;20.60;42.60;;;;;;1563962;74;686;-65
2023/09/24 06:16:28;;;;;;;;;;;20.60;42.40;;;;;;1560086;74;749;-66
2023/09/24 06:18:29;;;;;;;;;;;20.60;42.70;;;;;;1567108;74;1136;-66
2023/09/24 06:20:31;;;;;;;;;;;20.60;42.70;;;;;;1560366;74;728;-67
2023/09/24 06:22:33;;;;;;;;;;;21.10;43.10;;;;;;1559978;74;630;-65
2023/09/24 06:24:35;;;;;;;;;;;20.60;42.80;;;;;;1557609;74;753;-66
2023/09/24 06:26:38;;;;;;;;;;;20.60;42.80;;;;;;1566290;74;717;-66
2023/09/24 06:28:40;;;;;;;;;;;20.60;42.80;;;;;;1563818;75;1136;-66
2023/09/24 06:30:42;;;;;;;;;;;20.50;42.80;;;;;;1563656;74;780;-67
2023/09/24 06:32:44;;;;;;;;;;;20.60;42.80;;;;;;1568768;74;1941;-67
2023/09/24 06:34:46;;;;;;;;;;;20.60;42.80;;;;;;1559387;74;790;-67
2023/09/24 06:36:48;;;;;;;;;;;20.60;42.90;;;;;;1566917;74;743;-66
2023/09/24 06:38:51;;;;;;;;;;;20.60;43.00;;;;;;1557218;74;1135;-66
2023/09/24 06:40:59;;;;;;;;;;;20.60;43.00;;;;;;1565026;74;726;-66
2023/09/24 06:43:01;;;;;;;;;;;20.60;43.00;;;;;;1565445;74;568;-66
2023/09/24 06:45:03;;;;;;;;;;;20.60;43.10;;;;;;1562428;74;746;-66
2023/09/24 06:47:05;;;;;;;;;;;20.60;43.10;;;;;;1566774;74;787;-67
2023/09/24 06:49:07;;;;;;;;;;;20.60;43.20;;;;;;1564001;74;1176;-67
2023/09/24 06:51:10;;;;;;;;;;;20.60;43.20;;;;;;1563399;74;603;-67
2023/09/24 06:53:12;;;;;;;;;;;20.60;43.20;;;;;;1567631;74;768;-66
2023/09/24 06:55:14;;;;;;;;;;;20.60;43.30;;;;;;1568945;74;1479;-65
2023/09/24 06:57:16;;;;;;;;;;;20.70;43.50;;;;;;1561912;74;712;-66
2023/09/24 06:59:18;;;;;;;;;;;20.60;43.40;;;;;;1564638;74;1174;-67
2023/09/24 07:01:19;;;;;;;;;;;20.60;43.40;;;;;;1566577;74;750;-64
2023/09/24 07:03:21;;;;;;;;;;;20.60;43.40;;;;;;1562053;74;641;-67
2023/09/24 07:05:23;;;;;;;;;;;20.70;43.60;;;;;;1565005;74;718;-65
2023/09/24 07:07:26;;;;;;;;;;;20.60;43.50;;;;;;1566677;74;602;-66
2023/09/24 07:09:29;;;;;;;;;;;20.60;43.50;;;;;;1565691;74;1147;-65
2023/09/24 07:11:33;;;;;;;;;;;20.60;43.60;;;;;;1566802;74;1906;-66
2023/09/24 07:13:34;;;;;;;;;;;20.60;43.60;;;;;;1564833;74;650;-66
2023/09/24 07:15:36;;;;;;;;;;;20.70;43.80;;;;;;1563209;74;751;-66
2023/09/24 07:17:38;;;;;;;;;;;20.70;43.80;;;;;;1560486;74;732;-66
2023/09/24 07:19:40;;;;;;;;;;;20.70;43.90;;;;;;1566076;74;1113;-66
2023/09/24 07:21:42;;;;;;;;;;;20.70;43.80;;;;;;1566630;74;720;-67
2023/09/24 07:23:44;;;;;;;;;;;20.70;43.80;;;;;;1564326;74;753;-66
2023/09/24 07:25:46;;;;;;;;;;;20.70;43.90;;;;;;1561348;74;713;-67
2023/09/24 07:27:48;;;;;;;;;;;20.70;43.90;;;;;;1561615;74;737;-67
2023/09/24 07:29:50;;;;;;;;;;;20.70;43.90;;;;;;1564760;74;741;-66
2023/09/24 07:31:54;;;;;;;;;;;20.70;43.90;;;;;;1566955;74;1936;-66
2023/09/24 07:33:57;;;;;;;;;;;20.80;43.90;;;;;;1571373;74;751;-66
2023/09/24 07:35:59;;;;;;;;;;;20.70;43.90;;;;;;1567569;74;790;-66
2023/09/24 07:38:01;;;;;;;;;;;20.80;43.80;;;;;;1570156;74;1136;-66
2023/09/24 07:40:05;;;;;;;;;;;20.80;43.80;;;;;;1562045;74;727;-66
2023/09/24 07:42:07;;;;;;;;;;;20.70;43.80;;;;;;1563651;75;1953;-66
2023/09/24 07:44:09;;;;;;;;;;;20.80;43.80;;;;;;1566315;74;746;-67
2023/09/24 07:46:15;;;;;;;;;;;20.80;43.90;;;;;;1566476;74;757;-66
2023/09/24 07:48:16;;;;;;;;;;;20.80;43.90;;;;;;1559906;74;1260;-67
2023/09/24 07:50:18;;;;;;;;;;;20.80;43.90;;;;;;1565776;74;711;-67
2023/09/24 07:52:20;;;;;;;;;;;20.80;43.80;;;;;;1563729;74;1936;-67
2023/09/24 07:54:22;;;;;;;;;;;20.80;43.90;;;;;;1558746;74;650;-68
2023/09/24 07:56:24;;;;;;;;;;;20.80;43.90;;;;;;1564862;74;732;-66
2023/09/24 07:58:26;;;;;;;;;;;20.80;44.00;;;;;;1562331;74;1132;-66
2023/09/24 08:00:28;;;;;;;;;;;20.80;44.00;;;;;;1561022;74;714;-67
2023/09/24 08:02:30;;;;;;;;;;;20.80;44.10;;;;;;1567233;74;724;-67
2023/09/24 08:04:32;;;;;;;;;;;20.90;44.20;;;;;;1566717;74;718;-65
2023/09/24 08:06:34;;;;;;;;;;;20.90;44.20;;;;;;1566815;74;735;-66
2023/09/24 08:08:37;;;;;;;;;;;20.90;44.20;;;;;;1560428;74;1144;-67
2023/09/24 08:10:39;;;;;;;;;;;20.90;44.30;;;;;;1563604;74;715;-67
2023/09/24 08:12:40;;;;;;;;;;;20.90;44.30;;;;;;1560526;74;1934;-66
2023/09/24 08:14:43;;;;;;;;;;;20.90;44.30;;;;;;1562095;74;748;-67
2023/09/24 08:16:45;;;;;;;;;;;20.90;44.30;;;;;;1567069;74;718;-66
2023/09/24 08:18:48;;;;;;;;;;;20.90;44.40;;;;;;1561439;74;1145;-66
2023/09/24 08:20:50;;;;;;;;;;;20.90;44.40;;;;;;1564602;74;693;-66
2023/09/24 08:22:52;;;;;;;;;;;20.90;44.40;;;;;;1561684;74;727;-67
2023/09/24 08:24:54;;;;;;;;;;;20.90;44.40;;;;;;1560905;74;675;-67
2023/09/24 08:26:56;;;;;;;;;;;21.00;44.40;;;;;;1558953;74;693;-68
2023/09/24 08:28:59;;;;;;;;;;;20.90;44.30;;;;;;1563265;74;1130;-67
2023/09/24 08:31:03;;;;;;;;;;;21.00;44.30;;;;;;1566260;74;676;-66
2023/09/24 08:33:04;;;;;;;;;;;20.90;44.30;;;;;;1565956;74;1927;-66
2023/09/24 08:35:07;;;;;;;;;;;21.00;44.30;;;;;;1552432;74;722;-65
2023/09/24 08:37:08;;;;;;;;;;;21.00;44.20;;;;;;1562205;74;643;-66
2023/09/24 08:39:11;;;;;;;;;;;21.00;44.20;;;;;;1558447;74;1142;-67
2023/09/24 08:41:12;;;;;;;;;;;21.00;44.40;;;;;;1554506;74;709;-67
2023/09/24 08:43:15;;;;;;;;;;;21.00;44.40;;;;;;1562647;74;695;-67
2023/09/24 08:45:20;;;;;;;;;;;21.00;44.40;;;;;;1574851;74;725;-67
2023/09/24 08:47:22;;;;;;;;;;;21.00;44.30;;;;;;1562894;74;1532;-68
2023/09/24 08:49:25;;;;;;;;;;;21.00;44.40;;;;;;1565403;74;1199;-66
2023/09/24 08:51:27;;;;;;;;;;;21.00;44.40;;;;;;1534535;76;720;-65
2023/09/24 08:53:30;;;;;;;;;;;21.00;44.40;;;;;;1567883;74;1910;-66
2023/09/24 08:55:32;;;;;;;;;;;21.00;44.40;;;;;;1562432;74;751;-65
2023/09/24 08:57:34;;;;;;;;;;;21.00;44.30;;;;;;1561503;74;736;-66
2023/09/24 08:59:36;;;;;;;;;;;21.00;44.20;;;;;;1567013;74;1170;-66
2023/09/24 09:01:38;;;;;;;;;;;21.00;44.40;;;;;;1563092;74;696;-68
2023/09/24 09:03:40;;;;;;;;;;;21.40;44.60;;;;;;1567355;74;729;-65
2023/09/24 09:05:43;;;;;;;;;;;21.00;44.40;;;;;;1567278;74;730;-67
2023/09/24 09:07:58;;;;;;;;;;;21.00;44.40;;;;;;1566838;74;705;-67
2023/09/24 09:10:03;;;;;;;;;;;21.00;44.40;;;;;;1563215;74;845;-67
2023/09/24 09:12:04;;;;;;;;;;;21.00;44.40;;;;;;1566492;74;1934;-67
2023/09/24 09:14:06;;;;;;;;;;;21.00;44.30;;;;;;1565012;74;743;-66
2023/09/24 09:16:09;;;;;;;;;;;21.00;44.20;;;;;;1565646;74;710;-66
2023/09/24 09:18:22;;;;;;;;;;;21.00;44.30;;;;;;1567002;74;1172;-66
2023/09/24 09:20:43;;;;;;;;;;;21.20;44.20;;;;;;1566268;74;1715;-67
2023/09/24 09:22:48;;;;;;;;;;;21.00;44.10;;;;;;1564620;74;789;-66
2023/09/24 09:24:51;;;;;;;;;;;21.00;43.90;;;;;;1555265;74;795;-67
2023/09/24 09:26:54;;;;;;;;;;;21.00;43.80;;;;;;1562355;74;1113;-64
2023/09/24 09:28:56;;;;;;;;;;;21.20;43.90;;;;;;1560877;74;1098;-65
2023/09/24 09:31:00;;;;;;;;;;;21.00;43.90;;;;;;1565157;74;798;-67
2023/09/24 09:33:02;;;;;;;;;;;21.00;44.00;;;;;;1562473;74;1935;-67
2023/09/24 09:35:05;;;;;;;;;;;21.00;44.00;;;;;;1566624;74;783;-67
2023/09/24 09:37:16;;;;;;;;;;;21.10;44.20;;;;;;1569694;74;787;-66
2023/09/24 09:39:18;;;;;;;;;;;21.00;44.10;;;;;;1570078;74;1176;-67
2023/09/24 09:41:20;;;;;;;;;;;21.00;44.00;;;;;;1568454;74;775;-68
2023/09/24 09:43:23;;;;;;;;;;;21.00;43.90;;;;;;1569272;74;682;-68
2023/09/24 09:45:26;;;;;;;;;;;21.00;44.00;;;;;;1568824;74;1608;-64
2023/09/24 09:47:29;;;;;;;;;;;21.00;44.00;;;;;;1564578;74;816;-66
2023/09/24 09:49:31;;;;;;;;;;;21.00;44.10;;;;;;1565274;74;1298;-66
2023/09/24 09:51:34;;;;;;;;;;;21.00;44.10;;;;;;1570001;74;805;-66
2023/09/24 09:53:37;;;;;;;;;;;21.00;44.10;;;;;;1559593;74;1942;-67
2023/09/24 09:55:40;;;;;;;;;;;21.00;44.20;;;;;;1568298;74;729;-67
2023/09/24 09:57:42;;;;;;;;;;;21.00;44.20;;;;;;1568185;74;623;-67
2023/09/24 09:59:43;;;;;;;;;;;21.10;44.30;;;;;;1572089;74;1116;-67
2023/09/24 10:01:45;;;;;;;;;;;21.10;44.20;;;;;;1568680;74;697;-66
2023/09/24 10:03:47;;;;;;;;;;;21.10;44.30;;;;;;1572630;74;739;-67
2023/09/24 10:05:49;;;;;;;;;;;21.10;44.10;;;;;;1560600;74;769;-67
2023/09/24 10:07:51;;;;;;;;;;;21.00;44.20;;;;;;1566105;74;1143;-66
2023/09/24 10:09:53;;;;;;;;;;;21.10;44.10;;;;;;1560694;74;679;-64
2023/09/24 10:11:56;;;;;;;;;;;21.10;44.20;;;;;;1567082;74;683;-66
2023/09/24 10:13:58;;;;;;;;;;;21.00;44.10;;;;;;1567478;74;1910;-67
2023/09/24 10:16:01;;;;;;;;;;;21.00;44.10;;;;;;1569805;74;756;-67
2023/09/24 10:18:15;;;;;;;;;;;21.10;44.20;;;;;;1533478;74;1384;-66
2023/09/24 10:20:18;;;;;;;;;;;21.10;44.10;;;;;;1568809;74;705;-67
2023/09/24 10:22:33;;;;;;;;;;;21.00;43.90;;;;;;1568287;74;816;-66
2023/09/24 10:24:37;;;;;;;;;;;21.00;43.90;;;;;;1569164;74;825;-67
2023/09/24 10:27:05;;;;;;;;;;;21.10;44.10;;;;;;1565878;74;603;-68
2023/09/24 10:28:59;;;;;;;;;;;21.00;44.00;;;;;;1524376;76;1587;-67
2023/09/24 10:31:04;;;;;;;;;;;21.10;44.00;;;;;;1534511;76;779;-64
2023/09/24 10:33:07;;;;;;;;;;;21.10;44.00;;;;;;1529082;76;1908;-66
2023/09/24 10:35:09;;;;;;;;;;;21.10;44.10;;;;;;1506518;77;831;-63
2023/09/24 10:37:11;;;;;;;;;;;21.00;44.00;;;;;;1533034;76;655;-67
2023/09/24 10:39:14;;;;;;;;;;;21.00;44.00;;;;;;1503201;77;1110;-66
2023/09/24 10:41:15;;;;;;;;;;;21.10;44.10;;;;;;1498585;77;1579;-66
2023/09/24 10:43:18;;;;;;;;;;;21.00;43.90;;;;;;1531390;76;775;-66
2023/09/24 10:45:21;;;;;;;;;;;21.10;44.00;;;;;;1513618;78;809;-67
2023/09/24 10:47:34;;;;;;;;;;;21.10;44.00;;;;;;1569503;74;713;-64
2023/09/24 10:49:31;;;;;;;;;;;21.10;43.90;;;;;;1565815;74;1597;-66
2023/09/24 10:51:33;;;;;;;;;;;21.10;44.10;;;;;;1569470;74;737;-67
2023/09/24 10:53:35;;;;;;;;;;;21.10;44.00;;;;;;1567106;74;1934;-66
2023/09/24 10:55:37;;;;;;;;;;;21.00;43.70;;;;;;1562309;74;839;-67
2023/09/24 10:57:39;;;;;;;;;;;21.00;43.10;;;;;;1556746;74;789;-66
2023/09/24 10:59:40;;;;;;;;;;;21.00;43.40;;;;;;1565589;74;1129;-68
2023/09/24 11:01:43;;;;;;;;;;;21.10;43.20;;;;;;1560046;74;805;-65
2023/09/24 11:03:45;;;;;;;;;;;21.10;43.50;;;;;;1568567;74;757;-66
2023/09/24 11:05:47;;;;;;;;;;;21.00;43.40;;;;;;1566115;74;796;-66
2023/09/24 11:07:49;;;;;;;;;;;21.00;43.30;;;;;;1571452;74;722;-66
2023/09/24 11:09:51;;;;;;;;;;;21.00;43.20;;;;;;1562888;74;748;-67
2023/09/24 11:11:53;;;;;;;;;;;21.10;43.30;;;;;;1569400;74;805;-67
2023/09/24 11:13:55;;;;;;;;;;;21.00;43.20;;;;;;1565869;74;1928;-66
2023/09/24 11:15:57;;;;;;;;;;;21.10;43.40;;;;;;1526266;76;689;-68
2023/09/24 11:17:59;;;;;;;;;;;21.00;43.30;;;;;;1534350;76;1161;-67
2023/09/24 11:20:01;;;;;;;;;;;21.00;43.20;;;;;;1523838;77;744;-68
2023/09/24 11:22:04;;;;;;;;;;;21.10;43.10;;;;;;1535171;76;1237;-67
2023/09/24 11:24:20;;;;;;;;;;;21.10;43.10;;;;;;1566813;74;1913;-65
2023/09/24 11:26:23;;;;;;;;;;;21.00;42.90;;;;;;1565259;74;1664;-66
2023/09/24 11:28:33;;;;;;;;;;;21.10;43.20;;;;;;1567408;74;1152;-67
2023/09/24 11:30:42;;;;;;;;;;;21.10;43.10;;;;;;1565882;74;1211;-66
2023/09/24 11:32:46;;;;;;;;;;;21.00;42.20;;;;;;1566819;74;813;-67
2023/09/24 11:34:48;;;;;;;;;;;21.00;42.70;;;;;;1566458;74;1929;-67
2023/09/24 11:36:54;;;;;;;;;;;21.00;42.80;;;;;;1559211;74;1516;-65
2023/09/24 11:39:00;;;;;;;;;;;21.10;42.90;;;;;;1572147;74;1222;-67
2023/09/24 11:41:08;;;;;;;;;;;21.00;42.60;;;;;;1567872;74;679;-65
2023/09/24 11:43:15;;;;;;;;;;;21.00;42.50;;;;;;1565754;74;857;-67
2023/09/24 11:45:18;;;;;;;;;;;21.10;42.40;;;;;;1569399;74;1506;-66
2023/09/24 11:47:20;;;;;;;;;;;21.00;42.50;;;;;;1570316;74;768;-67
2023/09/24 11:49:22;;;;;;;;;;;21.00;42.40;;;;;;1560345;74;1119;-67
2023/09/24 11:51:24;;;;;;;;;;;21.10;42.30;;;;;;1564012;75;705;-67
2023/09/24 11:53:26;;;;;;;;;;;21.10;42.20;;;;;;1561426;74;1922;-65
2023/09/24 11:55:28;;;;;;;;;;;21.00;42.10;;;;;;1572026;74;774;-66
2023/09/24 11:57:30;;;;;;;;;;;21.10;42.30;;;;;;1568624;74;728;-67
2023/09/24 11:59:32;;;;;;;;;;;21.00;41.90;;;;;;1568060;74;1109;-67
2023/09/24 12:01:33;;;;;;;;;;;21.00;41.70;;;;;;1569348;74;766;-67
2023/09/24 12:03:35;;;;;;;;;;;20.90;42.00;;;;;;1565366;74;750;-67
2023/09/24 12:05:37;;;;;;;;;;;21.00;42.10;;;;;;1563103;74;794;-66
2023/09/24 12:07:39;;;;;;;;;;;21.00;42.10;;;;;;1559681;74;674;-67
2023/09/24 12:09:41;;;;;;;;;;;21.00;42.00;;;;;;1567407;74;1117;-66
2023/09/24 12:11:43;;;;;;;;;;;21.00;42.00;;;;;;1569736;74;718;-65